SBMO/MCZ METAR and TAF weather

Enter ICAO airport designator
Station Type Date Time Source
SBMO METAR 2020/08/10 18:00 UTC NOAA

SBMO 101800Z 12010KT 9999 FEW030 27/18 Q1016


Station Type Date Time Source
SBMO Decoded METAR 2020/08/10 18:00 UTC NOAA

Maceio Aeroporto , Brazil (SBMO) 09-31S 035-47W 115M
Aug 10, 2020 - 02:00 PM EDT / 2020.08.10 1800 UTC
Wind: from the ESE (120 degrees) at 12 MPH (10 KT):0
Visibility: greater than 7 mile(s):0
Sky conditions: mostly clear
Temperature: 80 F (27 C)
Dew Point: 64 F (18 C)
Relative Humidity: 57%
Pressure (altimeter): 30.00 in. Hg (1016 hPa)
ob: SBMO 101800Z 12010KT 9999 FEW030 27/18 Q1016
cycle: 18

Station Type Date Time Source
SBMO TAF 2020/08/10 18:52 UTC NOAA

TAF SBMO 101500Z 1018/1118 13010KT 9999 SCT025 TN22/1109Z TX28/1118Z
BECMG 1021/1023 SCT020 PROB40
TEMPO 1115/1118 8000 SHRA SCT017 FEW025 TCU
RMK PDP

Example: see airport list